sensor_id;sensor_type;location;lat;lon;timestamp;pressure;altitude;pressure_sealevel;temperature;humidity
56721;BME280;53183;47.412;18.884;2023-12-20T00:00:05;99384.53;;;-1.12;100.00
56721;BME280;53183;47.412;18.884;2023-12-20T00:02:33;99380.19;;;-1.05;100.00
56721;BME280;53183;47.412;18.884;2023-12-20T00:05:00;99373.22;;;-1.02;100.00
56721;BME280;53183;47.412;18.884;2023-12-20T00:07:44;99368.94;;;-1.07;100.00
56721;BME280;53183;47.412;18.884;2023-12-20T00:10:12;99365.53;;;-1.11;100.00
56721;BME280;53183;47.412;18.884;2023-12-20T00:12:40;99366.31;;;-1.04;100.00
56721;BME280;53183;47.412;18.884;2023-12-20T00:15:08;99359.38;;;-1.02;100.00
56721;BME280;53183;47.412;18.884;2023-12-20T00:17:37;99361.94;;;-0.99;100.00
56721;BME280;53183;47.412;18.884;2023-12-20T00:20:05;99354.06;;;-0.90;100.00
56721;BME280;53183;47.412;18.884;2023-12-20T00:22:33;99354.16;;;-0.99;100.00
56721;BME280;53183;47.412;18.884;2023-12-20T00:25:00;99353.41;;;-1.12;100.00
56721;BME280;53183;47.412;18.884;2023-12-20T00:27:28;99338.72;;;-1.08;100.00
56721;BME280;53183;47.412;18.884;2023-12-20T00:29:55;99330.78;;;-0.95;100.00
56721;BME280;53183;47.412;18.884;2023-12-20T00:32:23;99330.75;;;-0.91;100.00
56721;BME280;53183;47.412;18.884;2023-12-20T00:34:51;99328.94;;;-0.83;100.00
56721;BME280;53183;47.412;18.884;2023-12-20T00:37:20;99328.09;;;-0.85;100.00
56721;BME280;53183;47.412;18.884;2023-12-20T00:39:47;99326.31;;;-0.80;100.00
56721;BME280;53183;47.412;18.884;2023-12-20T00:42:15;99323.72;;;-0.80;100.00
56721;BME280;53183;47.412;18.884;2023-12-20T00:44:42;99315.00;;;-0.75;100.00
56721;BME280;53183;47.412;18.884;2023-12-20T00:47:10;99319.50;;;-0.90;100.00
56721;BME280;53183;47.412;18.884;2023-12-20T00:49:38;99318.66;;;-0.96;100.00
56721;BME280;53183;47.412;18.884;2023-12-20T00:52:05;99317.63;;;-0.79;100.00
56721;BME280;53183;47.412;18.884;2023-12-20T00:54:33;99311.59;;;-0.80;100.00
56721;BME280;53183;47.412;18.884;2023-12-20T00:57:01;99304.66;;;-0.78;100.00
56721;BME280;53183;47.412;18.884;2023-12-20T00:59:28;99298.72;;;-0.87;100.00
56721;BME280;53183;47.412;18.884;2023-12-20T01:01:55;99291.78;;;-0.85;100.00
56721;BME280;53183;47.412;18.884;2023-12-20T01:04:23;99286.56;;;-0.84;100.00
56721;BME280;53183;47.412;18.884;2023-12-20T01:06:52;99289.09;;;-0.78;100.00
56721;BME280;53183;47.412;18.884;2023-12-20T01:09:19;99270.28;;;-0.95;100.00
56721;BME280;53183;47.412;18.884;2023-12-20T01:11:47;99270.28;;;-0.97;100.00
56721;BME280;53183;47.412;18.884;2023-12-20T01:14:14;99262.63;;;-1.07;100.00
56721;BME280;53183;47.412;18.884;2023-12-20T01:16:42;99262.63;;;-1.09;100.00
56721;BME280;53183;47.412;18.884;2023-12-20T01:19:10;99262.66;;;-1.10;100.00
56721;BME280;53183;47.412;18.884;2023-12-20T01:21:38;99256.72;;;-1.22;100.00
56721;BME280;53183;47.412;18.884;2023-12-20T01:24:05;99253.16;;;-1.13;100.00
56721;BME280;53183;47.412;18.884;2023-12-20T01:26:33;99251.44;;;-1.14;100.00
56721;BME280;53183;47.412;18.884;2023-12-20T01:29:00;99250.62;;;-1.19;100.00
56721;BME280;53183;47.412;18.884;2023-12-20T01:31:28;99240.13;;;-1.07;100.00
56721;BME280;53183;47.412;18.884;2023-12-20T01:33:56;99239.16;;;-0.97;100.00
56721;BME280;53183;47.412;18.884;2023-12-20T01:36:23;99226.06;;;-0.89;100.00
56721;BME280;53183;47.412;18.884;2023-12-20T01:38:51;99234.75;;;-0.88;100.00
56721;BME280;53183;47.412;18.884;2023-12-20T01:41:18;99230.47;;;-0.94;100.00
56721;BME280;53183;47.412;18.884;2023-12-20T01:43:46;99233.09;;;-0.97;100.00
56721;BME280;53183;47.412;18.884;2023-12-20T01:46:19;99231.34;;;-0.92;100.00
56721;BME280;53183;47.412;18.884;2023-12-20T01:48:48;99233.28;;;-1.15;100.00
56721;BME280;53183;47.412;18.884;2023-12-20T01:51:15;99221.91;;;-1.01;100.00
56721;BME280;53183;47.412;18.884;2023-12-20T01:53:44;99220.25;;;-1.06;100.00
56721;BME280;53183;47.412;18.884;2023-12-20T01:56:11;99212.47;;;-1.06;100.00
56721;BME280;53183;47.412;18.884;2023-12-20T01:58:43;99202.94;;;-1.04;100.00
56721;BME280;53183;47.412;18.884;2023-12-20T02:01:11;99197.75;;;-1.06;100.00
56721;BME280;53183;47.412;18.884;2023-12-20T02:03:42;99186.50;;;-1.03;100.00
56721;BME280;53183;47.412;18.884;2023-12-20T02:06:12;99188.25;;;-1.07;100.00
56721;BME280;53183;47.412;18.884;2023-12-20T02:08:41;99183.91;;;-1.02;100.00
56721;BME280;53183;47.412;18.884;2023-12-20T02:11:10;99179.56;;;-1.03;100.00
56721;BME280;53183;47.412;18.884;2023-12-20T02:13:37;99181.19;;;-0.94;100.00
56721;BME280;53183;47.412;18.884;2023-12-20T02:16:04;99188.94;;;-0.91;100.00
56721;BME280;53183;47.412;18.884;2023-12-20T02:18:31;99182.94;;;-0.96;100.00
56721;BME280;53183;47.412;18.884;2023-12-20T02:20:59;99168.22;;;-0.94;100.00
56721;BME280;53183;47.412;18.884;2023-12-20T02:23:26;99172.75;;;-1.10;100.00
56721;BME280;53183;47.412;18.884;2023-12-20T02:25:54;99166.75;;;-1.15;100.00
56721;BME280;53183;47.412;18.884;2023-12-20T02:28:22;99152.84;;;-1.08;100.00
56721;BME280;53183;47.412;18.884;2023-12-20T02:30:50;99145.97;;;-1.10;100.00
56721;BME280;53183;47.412;18.884;2023-12-20T02:33:18;99157.47;;;-1.36;100.00
56721;BME280;53183;47.412;18.884;2023-12-20T02:35:45;99157.56;;;-1.44;100.00
56721;BME280;53183;47.412;18.884;2023-12-20T02:38:13;99160.13;;;-1.42;100.00
56721;BME280;53183;47.412;18.884;2023-12-20T02:40:40;99160.94;;;-1.38;100.00
56721;BME280;53183;47.412;18.884;2023-12-20T02:43:16;99153.09;;;-1.28;100.00
56721;BME280;53183;47.412;18.884;2023-12-20T02:45:43;99152.28;;;-1.36;100.00
56721;BME280;53183;47.412;18.884;2023-12-20T02:48:10;99146.16;;;-1.29;100.00
56721;BME280;53183;47.412;18.884;2023-12-20T02:50:38;99132.31;;;-1.26;100.00
56721;BME280;53183;47.412;18.884;2023-12-20T02:53:08;99133.13;;;-1.23;100.00
56721;BME280;53183;47.412;18.884;2023-12-20T02:55:35;99126.91;;;-1.09;100.00
56721;BME280;53183;47.412;18.884;2023-12-20T02:58:02;99127.00;;;-1.14;100.00
56721;BME280;53183;47.412;18.884;2023-12-20T03:00:29;99117.50;;;-1.15;100.00
56721;BME280;53183;47.412;18.884;2023-12-20T03:02:57;99111.41;;;-1.12;100.00
56721;BME280;53183;47.412;18.884;2023-12-20T03:05:27;99113.09;;;-1.08;100.00
56721;BME280;53183;47.412;18.884;2023-12-20T03:07:54;99126.25;;;-1.24;100.00
56721;BME280;53183;47.412;18.884;2023-12-20T03:10:21;99128.12;;;-1.35;100.00
56721;BME280;53183;47.412;18.884;2023-12-20T03:12:54;99121.84;;;-1.19;100.00
56721;BME280;53183;47.412;18.884;2023-12-20T03:15:22;99128.00;;;-1.29;100.00
56721;BME280;53183;47.412;18.884;2023-12-20T03:17:50;99117.56;;;-1.23;100.00
56721;BME280;53183;47.412;18.884;2023-12-20T03:20:19;99130.47;;;-1.15;100.00
56721;BME280;53183;47.412;18.884;2023-12-20T03:22:46;99117.50;;;-1.16;100.00
56721;BME280;53183;47.412;18.884;2023-12-20T03:25:13;99121.03;;;-1.21;100.00
56721;BME280;53183;47.412;18.884;2023-12-20T03:27:41;99124.44;;;-1.19;100.00
56721;BME280;53183;47.412;18.884;2023-12-20T03:30:09;99107.38;;;-1.36;100.00
56721;BME280;53183;47.412;18.884;2023-12-20T03:32:38;99111.72;;;-1.37;100.00
56721;BME280;53183;47.412;18.884;2023-12-20T03:35:05;99111.75;;;-1.40;100.00
56721;BME280;53183;47.412;18.884;2023-12-20T03:37:33;99111.75;;;-1.42;100.00
56721;BME280;53183;47.412;18.884;2023-12-20T03:40:00;99121.19;;;-1.36;100.00
56721;BME280;53183;47.412;18.884;2023-12-20T03:42:29;99121.94;;;-1.25;100.00
56721;BME280;53183;47.412;18.884;2023-12-20T03:44:56;99128.88;;;-1.27;100.00
56721;BME280;53183;47.412;18.884;2023-12-20T03:47:23;99120.28;;;-1.30;100.00
56721;BME280;53183;47.412;18.884;2023-12-20T03:49:51;99135.81;;;-1.32;100.00
56721;BME280;53183;47.412;18.884;2023-12-20T03:52:18;99122.00;;;-1.31;100.00
56721;BME280;53183;47.412;18.884;2023-12-20T03:54:45;99111.75;;;-1.40;100.00
56721;BME280;53183;47.412;18.884;2023-12-20T03:57:13;99109.22;;;-1.45;100.00
56721;BME280;53183;47.412;18.884;2023-12-20T03:59:40;99101.47;;;-1.49;100.00
56721;BME280;53183;47.412;18.884;2023-12-20T04:02:08;99099.75;;;-1.49;100.00
56721;BME280;53183;47.412;18.884;2023-12-20T04:04:35;99097.91;;;-1.39;100.00
56721;BME280;53183;47.412;18.884;2023-12-20T04:07:03;99093.34;;;-1.20;100.00
56721;BME280;53183;47.412;18.884;2023-12-20T04:09:30;99089.13;;;-1.29;100.00
56721;BME280;53183;47.412;18.884;2023-12-20T04:11:58;99082.34;;;-1.39;100.00
56721;BME280;53183;47.412;18.884;2023-12-20T04:14:25;99084.97;;;-1.40;100.00
56721;BME280;53183;47.412;18.884;2023-12-20T04:16:53;99083.41;;;-1.54;100.00
56721;BME280;53183;47.412;18.884;2023-12-20T04:19:21;99089.47;;;-1.56;100.00
56721;BME280;53183;47.412;18.884;2023-12-20T04:21:49;99089.47;;;-1.56;100.00
56721;BME280;53183;47.412;18.884;2023-12-20T04:24:16;99082.56;;;-1.56;100.00
56721;BME280;53183;47.412;18.884;2023-12-20T04:26:43;99074.75;;;-1.53;100.00
56721;BME280;53183;47.412;18.884;2023-12-20T04:29:11;99079.06;;;-1.55;100.00
56721;BME280;53183;47.412;18.884;2023-12-20T04:31:38;99086.13;;;-1.64;100.00
56721;BME280;53183;47.412;18.884;2023-12-20T04:34:06;99069.75;;;-1.71;100.00
56721;BME280;53183;47.412;18.884;2023-12-20T04:36:33;99074.94;;;-1.71;100.00
56721;BME280;53183;47.412;18.884;2023-12-20T04:39:00;99068.94;;;-1.75;100.00
56721;BME280;53183;47.412;18.884;2023-12-20T04:41:30;99062.94;;;-1.78;100.00
56721;BME280;53183;47.412;18.884;2023-12-20T04:43:58;99063.78;;;-1.76;100.00
56721;BME280;53183;47.412;18.884;2023-12-20T04:46:25;99062.78;;;-1.63;100.00
56721;BME280;53183;47.412;18.884;2023-12-20T04:48:53;99064.53;;;-1.67;100.00
56721;BME280;53183;47.412;18.884;2023-12-20T04:51:21;99057.63;;;-1.64;100.00
56721;BME280;53183;47.412;18.884;2023-12-20T04:53:48;99044.75;;;-1.71;100.00
56721;BME280;53183;47.412;18.884;2023-12-20T04:56:16;99039.31;;;-1.52;100.00
56721;BME280;53183;47.412;18.884;2023-12-20T04:58:43;99029.03;;;-1.58;100.00
56721;BME280;53183;47.412;18.884;2023-12-20T05:01:11;99022.22;;;-1.66;100.00
56721;BME280;53183;47.412;18.884;2023-12-20T05:03:39;99022.06;;;-1.53;100.00
56721;BME280;53183;47.412;18.884;2023-12-20T05:06:06;99021.19;;;-1.52;100.00
56721;BME280;53183;47.412;18.884;2023-12-20T05:08:34;99014.28;;;-1.53;100.00
56721;BME280;53183;47.412;18.884;2023-12-20T05:11:01;99015.06;;;-1.48;100.00
56721;BME280;53183;47.412;18.884;2023-12-20T05:13:28;99020.41;;;-1.57;100.00
56721;BME280;53183;47.412;18.884;2023-12-20T05:16:08;99008.25;;;-1.55;100.00
56721;BME280;53183;47.412;18.884;2023-12-20T05:18:36;99002.19;;;-1.53;100.00
56721;BME280;53183;47.412;18.884;2023-12-20T05:21:04;98991.94;;;-1.62;100.00
56721;BME280;53183;47.412;18.884;2023-12-20T05:23:31;99002.41;;;-1.71;100.00
56721;BME280;53183;47.412;18.884;2023-12-20T05:26:01;99016.22;;;-1.69;100.00
56721;BME280;53183;47.412;18.884;2023-12-20T05:28:31;99029.19;;;-1.71;100.00
56721;BME280;53183;47.412;18.884;2023-12-20T05:30:59;99041.25;;;-1.71;100.00
56721;BME280;53183;47.412;18.884;2023-12-20T05:33:26;99044.12;;;-1.96;100.00
56721;BME280;53183;47.412;18.884;2023-12-20T05:35:53;99057.91;;;-1.91;100.00
56721;BME280;53183;47.412;18.884;2023-12-20T05:38:21;99054.63;;;-2.11;100.00
56721;BME280;53183;47.412;18.884;2023-12-20T05:40:48;99055.53;;;-2.15;100.00
56721;BME280;53183;47.412;18.884;2023-12-20T05:43:16;99045.94;;;-2.02;100.00
56721;BME280;53183;47.412;18.884;2023-12-20T05:45:44;99044.25;;;-2.06;100.00
56721;BME280;53183;47.412;18.884;2023-12-20T05:48:12;99033.94;;;-2.11;100.00
56721;BME280;53183;47.412;18.884;2023-12-20T05:50:39;99017.41;;;-1.99;100.00
56721;BME280;53183;47.412;18.884;2023-12-20T05:53:10;99005.34;;;-2.00;100.00
56721;BME280;53183;47.412;18.884;2023-12-20T05:55:37;99007.00;;;-1.93;100.00
56721;BME280;53183;47.412;18.884;2023-12-20T05:58:04;99011.44;;;-2.06;100.00
56721;BME280;53183;47.412;18.884;2023-12-20T06:00:32;99011.41;;;-2.04;100.00
56721;BME280;53183;47.412;18.884;2023-12-20T06:03:00;99017.53;;;-2.12;100.00
56721;BME280;53183;47.412;18.884;2023-12-20T06:05:27;99005.38;;;-2.03;100.00
56721;BME280;53183;47.412;18.884;2023-12-20T06:07:54;99001.91;;;-2.02;100.00
56721;BME280;53183;47.412;18.884;2023-12-20T06:10:25;99001.94;;;-2.04;100.00
56721;BME280;53183;47.412;18.884;2023-12-20T06:12:52;98994.19;;;-2.04;100.00
56721;BME280;53183;47.412;18.884;2023-12-20T06:15:19;98989.75;;;-1.96;100.00
56721;BME280;53183;47.412;18.884;2023-12-20T06:17:47;98984.63;;;-1.99;100.00
56721;BME280;53183;47.412;18.884;2023-12-20T06:20:15;98987.22;;;-2.02;100.00
56721;BME280;53183;47.412;18.884;2023-12-20T06:22:44;98986.41;;;-2.05;100.00
56721;BME280;53183;47.412;18.884;2023-12-20T06:25:12;98990.75;;;-2.07;100.00
56721;BME280;53183;47.412;18.884;2023-12-20T06:27:40;98988.94;;;-1.99;100.00
56721;BME280;53183;47.412;18.884;2023-12-20T06:30:08;98989.81;;;-2.02;100.00
56721;BME280;53183;47.412;18.884;2023-12-20T06:32:39;98989.78;;;-1.97;100.00
56721;BME280;53183;47.412;18.884;2023-12-20T06:35:06;98992.44;;;-2.03;100.00
56721;BME280;53183;47.412;18.884;2023-12-20T06:37:34;98987.13;;;-1.94;100.00
56721;BME280;53183;47.412;18.884;2023-12-20T06:40:01;98994.06;;;-1.95;100.00
56721;BME280;53183;47.412;18.884;2023-12-20T06:42:29;99008.06;;;-2.13;100.00
56721;BME280;53183;47.412;18.884;2023-12-20T06:45:03;99017.63;;;-2.21;100.00
56721;BME280;53183;47.412;18.884;2023-12-20T06:47:31;99041.00;;;-2.28;100.00
56721;BME280;53183;47.412;18.884;2023-12-20T06:49:59;99044.47;;;-2.29;100.00
56721;BME280;53183;47.412;18.884;2023-12-20T06:52:28;99041.06;;;-2.33;100.00
56721;BME280;53183;47.412;18.884;2023-12-20T06:54:55;99044.69;;;-2.57;100.00
56721;BME280;53183;47.412;18.884;2023-12-20T06:57:22;99042.97;;;-2.55;100.00
56721;BME280;53183;47.412;18.884;2023-12-20T06:59:50;99044.56;;;-2.39;100.00
56721;BME280;53183;47.412;18.884;2023-12-20T07:02:19;99035.91;;;-2.38;100.00
56721;BME280;53183;47.412;18.884;2023-12-20T07:04:46;99032.37;;;-2.29;100.00
56721;BME280;53183;47.412;18.884;2023-12-20T07:07:13;99036.75;;;-2.32;100.00
56721;BME280;53183;47.412;18.884;2023-12-20T07:09:41;99042.69;;;-2.24;100.00
56721;BME280;53183;47.412;18.884;2023-12-20T07:12:10;99027.09;;;-2.17;100.00
56721;BME280;53183;47.412;18.884;2023-12-20T07:14:38;99031.41;;;-2.16;100.00
56721;BME280;53183;47.412;18.884;2023-12-20T07:17:04;99030.47;;;-2.08;100.00
56721;BME280;53183;47.412;18.884;2023-12-20T07:19:32;99034.56;;;-1.89;100.00
56721;BME280;53183;47.412;18.884;2023-12-20T07:22:00;99028.38;;;-1.74;100.00
56721;BME280;53183;47.412;18.884;2023-12-20T07:24:28;99022.41;;;-1.82;100.00
56721;BME280;53183;47.412;18.884;2023-12-20T07:26:56;99024.09;;;-1.77;100.00
56721;BME280;53183;47.412;18.884;2023-12-20T07:29:23;99029.84;;;-1.53;100.00
56721;BME280;53183;47.412;18.884;2023-12-20T07:31:50;99024.44;;;-1.35;100.00
56721;BME280;53183;47.412;18.884;2023-12-20T07:34:22;99030.53;;;-1.42;100.00
56721;BME280;53183;47.412;18.884;2023-12-20T07:36:50;99031.34;;;-1.37;100.00
56721;BME280;53183;47.412;18.884;2023-12-20T07:39:17;99032.78;;;-1.16;100.00
56721;BME280;53183;47.412;18.884;2023-12-20T07:41:46;99031.00;;;-1.11;100.00
56721;BME280;53183;47.412;18.884;2023-12-20T07:44:14;99031.66;;;-0.97;100.00
56721;BME280;53183;47.412;18.884;2023-12-20T07:46:43;99027.41;;;-1.01;100.00
56721;BME280;53183;47.412;18.884;2023-12-20T07:49:11;99033.44;;;-0.99;100.00
56721;BME280;53183;47.412;18.884;2023-12-20T07:51:39;99026.50;;;-0.98;100.00
56721;BME280;53183;47.412;18.884;2023-12-20T07:54:07;99025.75;;;-1.06;100.00
56721;BME280;53183;47.412;18.884;2023-12-20T07:56:35;99024.72;;;-0.96;100.00
56721;BME280;53183;47.412;18.884;2023-12-20T07:59:02;99017.75;;;-0.91;100.00
56721;BME280;53183;47.412;18.884;2023-12-20T08:01:32;99019.28;;;-0.79;100.00
56721;BME280;53183;47.412;18.884;2023-12-20T08:04:00;99013.84;;;-0.62;100.00
56721;BME280;53183;47.412;18.884;2023-12-20T08:06:27;99004.28;;;-0.60;100.00
56721;BME280;53183;47.412;18.884;2023-12-20T08:08:56;99001.59;;;-0.54;100.00
56721;BME280;53183;47.412;18.884;2023-12-20T08:11:34;99010.16;;;-0.49;100.00
56721;BME280;53183;47.412;18.884;2023-12-20T08:14:01;98999.88;;;-0.55;100.00
56721;BME280;53183;47.412;18.884;2023-12-20T08:16:28;99005.97;;;-0.59;100.00
56721;BME280;53183;47.412;18.884;2023-12-20T08:18:56;99006.72;;;-0.51;100.00
56721;BME280;53183;47.412;18.884;2023-12-20T08:21:24;99004.19;;;-0.54;100.00
56721;BME280;53183;47.412;18.884;2023-12-20T08:23:51;99005.94;;;-0.56;100.00
56721;BME280;53183;47.412;18.884;2023-12-20T08:26:19;99011.03;;;-0.49;100.00
56721;BME280;53183;47.412;18.884;2023-12-20T08:28:48;99013.47;;;-0.41;100.00
56721;BME280;53183;47.412;18.884;2023-12-20T08:31:17;99004.69;;;-0.34;100.00
56721;BME280;53183;47.412;18.884;2023-12-20T08:33:46;99006.91;;;-0.12;100.00
56721;BME280;53183;47.412;18.884;2023-12-20T08:36:14;99006.69;;;0.00;100.00
56721;BME280;53183;47.412;18.884;2023-12-20T08:38:41;99011.69;;;0.11;100.00
56721;BME280;53183;47.412;18.884;2023-12-20T08:41:09;99009.94;;;0.10;100.00
56721;BME280;53183;47.412;18.884;2023-12-20T08:43:36;99012.25;;;0.27;100.00
56721;BME280;53183;47.412;18.884;2023-12-20T08:46:03;99010.63;;;0.21;100.00
56721;BME280;53183;47.412;18.884;2023-12-20T08:48:31;99025.31;;;0.23;100.00
56721;BME280;53183;47.412;18.884;2023-12-20T08:51:00;99020.59;;;-0.03;100.00
56721;BME280;53183;47.412;18.884;2023-12-20T08:53:27;99023.63;;;0.19;100.00
56721;BME280;53183;47.412;18.884;2023-12-20T08:55:55;99022.69;;;0.23;100.00
56721;BME280;53183;47.412;18.884;2023-12-20T08:58:23;99014.81;;;0.28;100.00
56721;BME280;53183;47.412;18.884;2023-12-20T09:00:50;99030.28;;;0.34;100.00
56721;BME280;53183;47.412;18.884;2023-12-20T09:03:18;99024.41;;;0.23;100.00
56721;BME280;53183;47.412;18.884;2023-12-20T09:05:46;99022.75;;;0.20;100.00
56721;BME280;53183;47.412;18.884;2023-12-20T09:08:13;99027.44;;;0.45;100.00
56721;BME280;53183;47.412;18.884;2023-12-20T09:10:41;99023.81;;;0.54;100.00
56721;BME280;53183;47.412;18.884;2023-12-20T09:13:09;99026.06;;;0.70;100.00
56721;BME280;53183;47.412;18.884;2023-12-20T09:15:38;99022.12;;;0.91;100.00
56721;BME280;53183;47.412;18.884;2023-12-20T09:18:07;99024.66;;;0.94;100.00
56721;BME280;53183;47.412;18.884;2023-12-20T09:20:36;99012.03;;;1.15;100.00
56721;BME280;53183;47.412;18.884;2023-12-20T09:23:07;99019.84;;;1.15;100.00
56721;BME280;53183;47.412;18.884;2023-12-20T09:25:34;99008.25;;;1.28;100.00
56721;BME280;53183;47.412;18.884;2023-12-20T09:28:02;99007.94;;;1.42;100.00
56721;BME280;53183;47.412;18.884;2023-12-20T09:30:33;98992.81;;;1.56;100.00
56721;BME280;53183;47.412;18.884;2023-12-20T09:33:02;98984.94;;;1.59;100.00
56721;BME280;53183;47.412;18.884;2023-12-20T09:35:30;98980.72;;;1.55;100.00
56721;BME280;53183;47.412;18.884;2023-12-20T09:37:59;98977.34;;;1.52;100.00
56721;BME280;53183;47.412;18.884;2023-12-20T09:40:27;98985.38;;;1.41;100.00
56721;BME280;53183;47.412;18.884;2023-12-20T09:42:57;98973.84;;;1.51;100.00
56721;BME280;53183;47.412;18.884;2023-12-20T09:45:25;98970.78;;;1.70;100.00
56721;BME280;53183;47.412;18.884;2023-12-20T09:47:53;98966.03;;;1.84;100.00
56721;BME280;53183;47.412;18.884;2023-12-20T09:50:24;98969.91;;;2.33;100.00
56721;BME280;53183;47.412;18.884;2023-12-20T09:52:53;98958.78;;;2.57;100.00
56721;BME280;53183;47.412;18.884;2023-12-20T09:55:21;98963.03;;;2.88;100.00
56721;BME280;53183;47.412;18.884;2023-12-20T09:57:49;98971.00;;;3.12;100.00
56721;BME280;53183;47.412;18.884;2023-12-20T10:00:17;98956.91;;;3.44;100.00
56721;BME280;53183;47.412;18.884;2023-12-20T10:02:50;98947.72;;;3.59;100.00
56721;BME280;53183;47.412;18.884;2023-12-20T10:05:29;98956.66;;;3.76;100.00
56721;BME280;53183;47.412;18.884;2023-12-20T10:08:01;98951.75;;;3.92;100.00
56721;BME280;53183;47.412;18.884;2023-12-20T10:10:29;98948.66;;;4.06;100.00
56721;BME280;53183;47.412;18.884;2023-12-20T10:13:12;98935.38;;;4.11;100.00
56721;BME280;53183;47.412;18.884;2023-12-20T10:15:40;98947.22;;;4.21;100.00
56721;BME280;53183;47.412;18.884;2023-12-20T10:18:09;98942.63;;;4.28;100.00
56721;BME280;53183;47.412;18.884;2023-12-20T10:20:40;98919.69;;;4.34;100.00
56721;BME280;53183;47.412;18.884;2023-12-20T10:23:08;98930.84;;;4.39;100.00
56721;BME280;53183;47.412;18.884;2023-12-20T10:25:35;98934.94;;;4.46;100.00
56721;BME280;53183;47.412;18.884;2023-12-20T10:28:14;98932.22;;;4.50;100.00
56721;BME280;53183;47.412;18.884;2023-12-20T10:30:41;98925.91;;;4.55;100.00
56721;BME280;53183;47.412;18.884;2023-12-20T10:33:10;98915.34;;;4.57;100.00
56721;BME280;53183;47.412;18.884;2023-12-20T10:35:40;98914.38;;;4.59;100.00
56721;BME280;53183;47.412;18.884;2023-12-20T10:38:14;98920.25;;;4.66;100.00
56721;BME280;53183;47.412;18.884;2023-12-20T10:40:45;98909.34;;;4.77;100.00
56721;BME280;53183;47.412;18.884;2023-12-20T10:43:13;98909.59;;;4.92;100.00
56721;BME280;53183;47.412;18.884;2023-12-20T10:45:41;98914.94;;;5.11;100.00
56721;BME280;53183;47.412;18.884;2023-12-20T10:48:10;98904.94;;;5.21;100.00
56721;BME280;53183;47.412;18.884;2023-12-20T10:50:40;98905.16;;;5.37;100.00
56721;BME280;53183;47.412;18.884;2023-12-20T10:53:07;98899.00;;;5.58;100.00
56721;BME280;53183;47.412;18.884;2023-12-20T10:55:34;98896.69;;;5.71;100.00
56721;BME280;53183;47.412;18.884;2023-12-20T10:58:07;98901.59;;;5.79;100.00
56721;BME280;53183;47.412;18.884;2023-12-20T11:00:40;98900.44;;;5.65;100.00
56721;BME280;53183;47.412;18.884;2023-12-20T11:03:11;98900.50;;;5.64;100.00
56721;BME280;53183;47.412;18.884;2023-12-20T11:06:18;98889.03;;;5.67;100.00
56721;BME280;53183;47.412;18.884;2023-12-20T11:08:52;98885.63;;;5.64;100.00
56721;BME280;53183;47.412;18.884;2023-12-20T11:11:29;98874.22;;;5.65;100.00
56721;BME280;53183;47.412;18.884;2023-12-20T11:14:03;98873.69;;;5.78;100.00
56721;BME280;53183;47.412;18.884;2023-12-20T11:16:32;98867.25;;;5.85;100.00
56721;BME280;53183;47.412;18.884;2023-12-20T11:19:15;98862.09;;;5.83;100.00
56721;BME280;53183;47.412;18.884;2023-12-20T11:21:45;98853.25;;;6.05;100.00
56721;BME280;53183;47.412;18.884;2023-12-20T11:24:15;98841.09;;;6.04;100.00
56721;BME280;53183;47.412;18.884;2023-12-20T11:26:47;98829.94;;;6.18;100.00
56721;BME280;53183;47.412;18.884;2023-12-20T11:29:35;98829.66;;;6.05;100.00
56721;BME280;53183;47.412;18.884;2023-12-20T11:34:58;98821.09;;;6.39;100.00
56721;BME280;53183;47.412;18.884;2023-12-20T11:37:30;98821.09;;;6.39;100.00
56721;BME280;53183;47.412;18.884;2023-12-20T11:40:07;98827.56;;;6.32;100.00
56721;BME280;53183;47.412;18.884;2023-12-20T11:42:40;98825.34;;;6.42;100.00
56721;BME280;53183;47.412;18.884;2023-12-20T11:45:09;98812.37;;;6.39;100.00
56721;BME280;53183;47.412;18.884;2023-12-20T11:47:37;98810.22;;;6.47;100.00
56721;BME280;53183;47.412;18.884;2023-12-20T11:50:05;98804.00;;;6.67;100.00
56721;BME280;53183;47.412;18.884;2023-12-20T11:52:33;98813.34;;;6.55;100.00
56721;BME280;53183;47.412;18.884;2023-12-20T11:55:00;98803.38;;;6.62;100.00
56721;BME280;53183;47.412;18.884;2023-12-20T11:57:30;98806.06;;;6.60;100.00
56721;BME280;53183;47.412;18.884;2023-12-20T12:00:00;98802.84;;;6.72;100.00
56721;BME280;53183;47.412;18.884;2023-12-20T12:02:38;98800.06;;;6.75;100.00
56721;BME280;53183;47.412;18.884;2023-12-20T12:05:06;98795.38;;;6.82;100.00
56721;BME280;53183;47.412;18.884;2023-12-20T12:07:35;98785.09;;;6.95;100.00
56721;BME280;53183;47.412;18.884;2023-12-20T12:10:03;98778.91;;;6.96;100.00
56721;BME280;53183;47.412;18.884;2023-12-20T12:12:31;98786.88;;;7.12;100.00
56721;BME280;53183;47.412;18.884;2023-12-20T12:15:00;98782.22;;;7.17;100.00
56721;BME280;53183;47.412;18.884;2023-12-20T12:17:27;98777.38;;;7.09;100.00
56721;BME280;53183;47.412;18.884;2023-12-20T12:20:05;98784.53;;;7.23;100.00
56721;BME280;53183;47.412;18.884;2023-12-20T12:22:33;98781.37;;;6.99;100.00
56721;BME280;53183;47.412;18.884;2023-12-20T12:25:11;98777.00;;;6.82;100.00
56721;BME280;53183;47.412;18.884;2023-12-20T12:27:40;98780.22;;;6.70;100.00
56721;BME280;53183;47.412;18.884;2023-12-20T12:30:09;98784.81;;;6.47;100.00
56721;BME280;53183;47.412;18.884;2023-12-20T12:32:38;98781.63;;;6.41;100.00
56721;BME280;53183;47.412;18.884;2023-12-20T12:35:07;98771.22;;;6.39;100.00
56721;BME280;53183;47.412;18.884;2023-12-20T12:37:38;98777.53;;;6.35;100.00
56721;BME280;53183;47.412;18.884;2023-12-20T12:40:17;98772.59;;;6.10;100.00
56721;BME280;53183;47.412;18.884;2023-12-20T12:42:46;98767.06;;;5.97;100.00
56721;BME280;53183;47.412;18.884;2023-12-20T12:45:13;98776.78;;;5.95;100.00
56721;BME280;53183;47.412;18.884;2023-12-20T12:47:41;98773.63;;;5.68;100.00
56721;BME280;53183;47.412;18.884;2023-12-20T12:50:14;98785.31;;;5.61;100.00
56721;BME280;53183;47.412;18.884;2023-12-20T12:52:41;98792.31;;;5.60;100.00